Daggett, CA

7:16 PM PDT on September 01, 2014 (GMT -0700)
Barstow-Daggett | Change Station
CLOSE
Current Station
Airport
Location: Daggett-Barstow,
Elevation: 1926 ft
Nearby Weather Stations

Elev 1926 ft 34.85 °N, 116.79 °W | Updated 26 minutes ago

Clear
Clear
99 °F
Feels Like 99 °F
N
5
Wind Variable Wind from NNE

Today
High -- | Low -- °F
--% Chance of Precip.
Yesterday
High -- | Low -- °F
Precip. -- in
6:20 AM 7:13 PM
Waxing Crescent, 46% visible
Pressure 29.66 in
Visibility 10.0 miles
Clouds Clear
Dew Point 34 °F
Humidity 10%
Rainfall 0.00 in
Snow Depth Not available.
UV 0 out of 12
Pollen 7.80 out of 12
Ozone Moderate
Flu Activity Not available.
METAR KDAG 020150Z AUTO 02004KT 10SM CLR 37/01 A2974 RMK AO2 SLP042 T03720011 TSNO

More Conditions Fewer Conditions

Pressure 29.66 in
Visibility 10.0 miles
Clouds Clear
Dew Point 34 °F
Humidity 10%
Rainfall 0.00 in
Snow Depth Not available.
UV 0 out of 12
Pollen 7.80 out of 12
Ozone Moderate
Flu Activity Not available.
METAR KDAG 020150Z AUTO 02004KT 10SM CLR 37/01 A2974 RMK AO2 SLP042 T03720011 TSNO

More Conditions Fewer Conditions

10-Day Weather Forecast

Almanac

Astronomy

Sep. 01, 2014 Rise Set
Actual Time 6:20 AM PDT 7:13 PM PDT
Civil Twilight 5:54 AM PDT 7:39 PM PDT
Nautical Twilight 5:23 AM PDT 8:09 PM PDT
Astronomical Twilight 4:52 AM PDT 8:41 PM PDT
Moon 12:54 PM PDT (9/1) 11:34 PM PDT (9/1)
Length of Visible Light 13h 45m
Length of Day
12h 53m
Tomorrow will be 2m 6s shorter.
Waxing Crescent, 46% of the Moon is Illuminated
Today
Waxing Crescent
Sep 2
First Quarter
Sep 8
Full
Sep 15
Last Quarter
Sep 24
New

Today's Extremes

State Highs State Lows

Community

WunderPhotos

Upload Photos

1,749,493 photos uploaded!

Nearby

Air Quality

  Air Quality AQ Index Pollutant
Yesterday Moderate
OZONE
Yesterday Good
PM10
Current Moderate
OZONE
Tuesday Good
PM10
Tuesday Good
OZONE
Tuesday Good
CO
Tuesday Good
NO2

Snow Depth

Station Depth Elevation
Adin Mountain 1 in 6200 ft

Earthquake Activity

City Distance Mag. Time & Date
No recent earthquake activity has been reported nearby.
Minimum magnitude displayed is 2.5.

Coastal Water Temperatures

Place Temperature
No Stations Reporting

Nearby Weather Stations